createdAt,value
2019-05-20T00:01:05.535Z,100591.69
2019-05-20T00:04:09.830Z,100588.83
2019-05-20T00:07:14.111Z,100588.98
2019-05-20T00:10:18.423Z,100589.55
2019-05-20T00:13:22.711Z,100585.08
2019-05-20T00:16:27.011Z,100586.13
2019-05-20T00:19:31.305Z,100567.23
2019-05-20T00:22:35.583Z,100568.95
2019-05-20T00:25:39.867Z,100574.89
2019-05-20T00:28:44.158Z,100583.93
2019-05-20T00:31:48.427Z,100584.95
2019-05-20T00:34:52.713Z,100580.94
2019-05-20T00:37:56.999Z,100585.75
2019-05-20T00:41:01.278Z,100581.50
2019-05-20T00:44:05.674Z,100576.05
2019-05-20T00:47:10.614Z,100577.25
2019-05-20T00:50:16.431Z,100577.25
2019-05-20T00:53:20.704Z,100569.58
2019-05-20T00:56:24.982Z,100567.33
2019-05-20T00:59:29.266Z,100568.34
2019-05-20T01:02:33.577Z,100568.34
2019-05-20T01:05:37.865Z,100572.77
2019-05-20T01:08:42.177Z,100567.95
2019-05-20T01:11:46.463Z,100569.95
2019-05-20T01:14:50.744Z,100564.03
2019-05-20T01:17:55.048Z,100562.35
2019-05-20T01:21:00.092Z,100553.45
2019-05-20T01:24:04.406Z,100578.40
2019-05-20T01:27:08.685Z,100556.66
2019-05-20T01:30:13.372Z,100550.88
2019-05-20T01:33:17.676Z,100550.88
2019-05-20T01:36:23.058Z,100543.20
2019-05-20T01:39:27.378Z,100543.20
2019-05-20T01:42:31.666Z,100550.97
2019-05-20T01:45:38.252Z,100547.73
2019-05-20T01:48:42.525Z,100546.78
2019-05-20T01:51:46.792Z,100548.47
2019-05-20T01:54:51.080Z,100542.05
2019-05-20T01:57:55.356Z,100544.34
2019-05-20T02:00:59.739Z,100540.80
2019-05-20T02:04:04.037Z,100545.34
2019-05-20T02:07:08.339Z,100539.46
2019-05-20T02:10:12.940Z,100539.00
2019-05-20T02:13:17.226Z,100531.86
2019-05-20T02:16:21.831Z,100541.41
2019-05-20T02:19:26.132Z,100533.80
2019-05-20T02:22:30.412Z,100528.95
2019-05-20T02:25:34.708Z,100528.95
2019-05-20T02:28:39.011Z,100538.64
2019-05-20T02:31:43.288Z,100534.89
2019-05-20T02:34:47.566Z,100536.84
2019-05-20T02:37:51.890Z,100536.84
2019-05-20T02:40:56.195Z,100533.27
2019-05-20T02:44:00.492Z,100548.72
2019-05-20T02:47:04.874Z,100549.06
2019-05-20T02:50:09.384Z,100553.49
2019-05-20T02:53:16.142Z,100538.56
2019-05-20T02:56:20.431Z,100545.25
2019-05-20T02:59:24.712Z,100541.78
2019-05-20T03:02:29.000Z,100544.12
2019-05-20T03:05:33.288Z,100541.25
2019-05-20T03:08:37.564Z,100554.41
2019-05-20T03:11:41.881Z,100556.02
2019-05-20T03:14:46.234Z,100551.34
2019-05-20T03:17:50.488Z,100561.05
2019-05-20T03:20:54.769Z,100563.25
2019-05-20T03:23:59.062Z,100558.77
2019-05-20T03:27:04.816Z,100556.70
2019-05-20T03:30:09.705Z,100558.38
2019-05-20T03:33:13.984Z,100558.38
2019-05-20T03:36:18.264Z,100553.69
2019-05-20T03:39:22.541Z,100562.39
2019-05-20T03:42:26.801Z,100568.20
2019-05-20T03:45:31.071Z,100563.49
2019-05-20T03:48:35.368Z,100562.65
2019-05-20T03:51:39.648Z,100560.42
2019-05-20T03:54:43.928Z,100550.20
2019-05-20T03:57:48.203Z,100550.20
2019-05-20T04:00:52.485Z,100558.55
2019-05-20T04:03:57.776Z,100554.09
2019-05-20T04:07:02.068Z,100551.39
2019-05-20T04:10:06.891Z,100557.48
2019-05-20T04:13:11.296Z,100549.33
2019-05-20T04:16:15.575Z,100546.89
2019-05-20T04:19:19.877Z,100551.17
2019-05-20T04:22:24.185Z,100554.92
2019-05-20T04:25:28.474Z,100557.34
2019-05-20T04:28:32.785Z,100551.31
2019-05-20T04:31:37.108Z,100545.22
2019-05-20T04:34:41.489Z,100535.49
2019-05-20T04:37:45.785Z,100529.39
2019-05-20T04:40:50.125Z,100535.08
2019-05-20T04:43:54.830Z,100525.92
2019-05-20T04:46:59.129Z,100535.46
2019-05-20T04:50:03.497Z,100534.45
2019-05-20T04:53:07.788Z,100532.91
2019-05-20T04:56:12.090Z,100528.09
2019-05-20T04:59:16.409Z,100529.10
2019-05-20T05:02:20.704Z,100534.30
2019-05-20T05:05:37.209Z,100533.62
2019-05-20T05:08:31.154Z,100531.61
2019-05-20T05:11:35.574Z,100534.20
2019-05-20T05:14:39.856Z,100528.94
2019-05-20T05:17:44.158Z,100526.38
2019-05-20T05:20:48.573Z,100524.46
2019-05-20T05:23:59.271Z,100522.03
2019-05-20T05:26:59.082Z,100523.41
2019-05-20T05:30:05.125Z,100521.78
2019-05-20T05:33:09.443Z,100520.11
2019-05-20T05:36:15.618Z,100522.00
2019-05-20T05:39:20.017Z,100519.11
2019-05-20T05:42:25.440Z,100517.76
2019-05-20T05:45:31.569Z,100514.16
2019-05-20T05:48:35.892Z,100513.95
2019-05-20T05:51:40.702Z,100516.86
2019-05-20T05:54:45.242Z,100519.49
2019-05-20T05:57:49.802Z,100520.28
2019-05-20T06:00:57.065Z,100528.10
2019-05-20T06:04:01.351Z,100526.55
2019-05-20T06:07:05.725Z,100527.66
2019-05-20T06:10:10.383Z,100527.58
2019-05-20T06:13:14.698Z,100529.00
2019-05-20T06:16:35.277Z,100526.48
2019-05-20T06:19:25.099Z,100528.45
2019-05-20T06:22:29.622Z,100531.03
2019-05-20T06:25:34.042Z,100526.33
2019-05-20T06:28:38.323Z,100527.72
2019-05-20T06:31:42.655Z,100524.57
2019-05-20T06:34:47.057Z,100526.33
2019-05-20T06:37:55.402Z,100530.48
2019-05-20T06:40:59.701Z,100526.00
2019-05-20T06:44:05.238Z,100521.59
2019-05-20T06:47:11.169Z,100529.48
2019-05-20T06:50:16.034Z,100528.70
2019-05-20T06:53:20.641Z,100538.16
2019-05-20T06:56:25.088Z,100537.02
2019-05-20T06:59:29.439Z,100540.19
2019-05-20T07:02:33.734Z,100546.94
2019-05-20T07:05:38.392Z,100547.11
2019-05-20T07:08:44.128Z,100553.41
2019-05-20T07:11:52.702Z,100552.00
2019-05-20T07:14:54.499Z,100551.07
2019-05-20T07:17:58.826Z,100554.22
2019-05-20T07:21:03.223Z,100551.48
2019-05-20T07:24:07.624Z,100549.33
2019-05-20T07:27:12.708Z,100556.36
2019-05-20T07:30:18.728Z,100552.80
2019-05-20T07:33:24.080Z,100557.38
2019-05-20T07:36:28.587Z,100544.06
2019-05-20T07:39:33.076Z,100553.85
2019-05-20T07:42:37.431Z,100548.89
2019-05-20T07:45:42.340Z,100549.05
2019-05-20T07:48:47.468Z,100549.56
2019-05-20T07:51:52.453Z,100546.64
2019-05-20T07:54:58.588Z,100548.63
2019-05-20T07:58:07.458Z,100544.48
2019-05-20T08:01:12.095Z,100552.95
2019-05-20T08:04:16.581Z,100553.39
2019-05-20T08:07:29.813Z,100556.69
2019-05-20T08:10:26.939Z,100554.05
2019-05-20T08:13:31.386Z,100551.42
2019-05-20T08:16:35.819Z,100549.05
2019-05-20T08:19:40.119Z,100549.05
2019-05-20T08:22:44.610Z,100552.72
2019-05-20T08:25:49.257Z,100558.47
2019-05-20T08:28:53.811Z,100553.36
2019-05-20T08:31:59.979Z,100552.47
2019-05-20T08:35:04.520Z,100555.30
2019-05-20T08:38:10.953Z,100557.55
2019-05-20T08:41:15.465Z,100562.40
2019-05-20T08:44:19.755Z,100552.28
2019-05-20T08:47:24.032Z,100554.66
2019-05-20T08:50:28.351Z,100555.45
2019-05-20T08:53:34.134Z,100556.38
2019-05-20T08:56:38.443Z,100559.79
2019-05-20T08:59:43.961Z,100563.11
2019-05-20T09:02:48.358Z,100554.98
2019-05-20T09:05:52.823Z,100556.05
2019-05-20T09:08:57.130Z,100556.48
2019-05-20T09:12:01.447Z,100549.38
2019-05-20T09:15:06.340Z,100549.37
2019-05-20T09:18:10.659Z,100548.36
2019-05-20T09:21:15.272Z,100546.05
2019-05-20T09:24:19.912Z,100546.81
2019-05-20T09:27:24.252Z,100543.47
2019-05-20T09:30:28.872Z,100552.86
2019-05-20T09:33:33.277Z,100551.27
2019-05-20T09:36:38.683Z,100554.98
2019-05-20T09:39:42.976Z,100557.82
2019-05-20T09:42:47.315Z,100550.68
2019-05-20T09:46:06.591Z,100551.11
2019-05-20T09:48:58.235Z,100545.78
2019-05-20T09:52:02.548Z,100549.94
2019-05-20T09:55:07.114Z,100550.64
2019-05-20T09:58:11.658Z,100549.15
2019-05-20T10:01:15.956Z,100549.88
2019-05-20T10:04:20.317Z,100548.16
2019-05-20T10:07:24.740Z,100545.39
2019-05-20T10:10:29.120Z,100547.50
2019-05-20T10:13:33.663Z,100550.50
2019-05-20T10:16:37.980Z,100551.75
2019-05-20T10:19:42.482Z,100556.69
2019-05-20T10:22:46.794Z,100549.33
2019-05-20T10:25:51.216Z,100555.34
2019-05-20T10:28:55.518Z,100562.13
2019-05-20T10:31:59.820Z,100555.55
2019-05-20T10:35:05.539Z,100549.05
2019-05-20T10:38:09.877Z,100554.11
2019-05-20T10:41:14.305Z,100550.77
2019-05-20T10:44:18.894Z,100550.52
2019-05-20T10:47:23.202Z,100549.00
2019-05-20T10:50:27.517Z,100557.55
2019-05-20T10:53:31.839Z,100563.00
2019-05-20T10:56:38.052Z,100558.30
2019-05-20T10:59:42.336Z,100557.66
2019-05-20T11:02:46.725Z,100556.05
2019-05-20T11:05:54.118Z,100559.44
2019-05-20T11:09:13.054Z,100555.61
2019-05-20T11:12:07.118Z,100556.49
2019-05-20T11:15:12.901Z,100556.78
2019-05-20T11:18:17.190Z,100550.49
2019-05-20T11:21:21.570Z,100550.14
2019-05-20T11:24:25.901Z,100549.27
2019-05-20T11:27:30.287Z,100546.16
2019-05-20T11:30:34.576Z,100550.41
2019-05-20T11:33:38.854Z,100551.12
2019-05-20T11:36:43.197Z,100555.30
2019-05-20T11:39:48.801Z,100554.90
2019-05-20T11:42:54.319Z,100547.67
2019-05-20T11:45:58.719Z,100546.48
2019-05-20T11:49:03.053Z,100550.18
2019-05-20T11:52:07.350Z,100547.00
2019-05-20T11:55:12.136Z,100548.17
2019-05-20T11:58:16.861Z,100550.93
2019-05-20T12:01:21.454Z,100550.73
2019-05-20T12:04:25.827Z,100548.38
2019-05-20T12:07:30.093Z,100550.46
2019-05-20T12:10:34.366Z,100540.73
2019-05-20T12:13:38.664Z,100543.38
2019-05-20T12:16:42.971Z,100550.59
2019-05-20T12:19:47.238Z,100542.97
2019-05-20T12:22:51.550Z,100549.20
2019-05-20T12:25:55.945Z,100549.59
2019-05-20T12:29:00.308Z,100547.33
2019-05-20T12:32:04.686Z,100545.98
2019-05-20T12:35:09.359Z,100540.64
2019-05-20T12:38:13.850Z,100540.73
2019-05-20T12:41:18.160Z,100535.45
2019-05-20T12:44:22.496Z,100528.08
2019-05-20T12:47:26.882Z,100523.88
2019-05-20T12:50:31.180Z,100519.41
2019-05-20T12:53:35.528Z,100516.48
2019-05-20T12:56:39.849Z,100523.78
2019-05-20T12:59:44.125Z,100525.27
2019-05-20T13:02:48.505Z,100517.38
2019-05-20T13:05:52.785Z,100517.92
2019-05-20T13:08:57.123Z,100520.77
2019-05-20T13:12:02.340Z,100518.70
2019-05-20T13:15:06.790Z,100528.22
2019-05-20T13:18:11.127Z,100518.86
2019-05-20T13:21:15.399Z,100521.25
2019-05-20T13:24:19.726Z,100515.17
2019-05-20T13:27:24.014Z,100524.54
2019-05-20T13:30:28.489Z,100513.58
2019-05-20T13:33:32.779Z,100515.77
2019-05-20T13:36:37.044Z,100514.94
2019-05-20T13:39:41.319Z,100508.80
2019-05-20T13:42:45.585Z,100504.95
2019-05-20T13:45:49.904Z,100507.78
2019-05-20T13:48:55.293Z,100510.38
2019-05-20T13:51:59.599Z,100509.73
2019-05-20T13:55:03.913Z,100505.69
2019-05-20T13:58:08.215Z,100506.41
2019-05-20T14:01:12.510Z,100512.61
2019-05-20T14:04:16.781Z,100509.62
2019-05-20T14:07:21.083Z,100508.09
2019-05-20T14:10:25.354Z,100500.80
2019-05-20T14:13:29.664Z,100491.13
2019-05-20T14:16:33.953Z,100489.17
2019-05-20T14:19:38.232Z,100483.64
2019-05-20T14:22:42.604Z,100479.70
2019-05-20T14:25:47.121Z,100472.28
2019-05-20T14:28:51.423Z,100477.22
2019-05-20T14:31:55.777Z,100465.03
2019-05-20T14:35:00.027Z,100467.37
2019-05-20T14:38:04.295Z,100459.12
2019-05-20T14:41:21.159Z,100456.79
2019-05-20T14:44:14.584Z,100462.21
2019-05-20T14:47:18.905Z,100453.94
2019-05-20T14:50:23.197Z,100446.53
2019-05-20T14:53:27.500Z,100448.51
2019-05-20T14:56:31.858Z,100434.67
2019-05-20T14:59:36.163Z,100438.63
2019-05-20T15:02:40.438Z,100432.42
2019-05-20T15:05:44.770Z,100437.37
2019-05-20T15:08:49.116Z,100433.11
2019-05-20T15:11:53.365Z,100426.32
2019-05-20T15:14:57.664Z,100423.95
2019-05-20T15:18:02.024Z,100414.77
2019-05-20T15:21:06.269Z,100417.33
2019-05-20T15:24:10.619Z,100412.66
2019-05-20T15:27:16.155Z,100421.75
2019-05-20T15:30:21.136Z,100421.27
2019-05-20T15:33:25.459Z,100422.03
2019-05-20T15:36:29.940Z,100418.65
2019-05-20T15:39:34.343Z,100426.03
2019-05-20T15:42:38.628Z,100427.63
2019-05-20T15:45:42.934Z,100424.29
2019-05-20T15:48:47.212Z,100431.32
2019-05-20T15:51:51.509Z,100438.20
2019-05-20T15:54:55.808Z,100430.89
2019-05-20T15:58:00.140Z,100427.35
2019-05-20T16:01:04.502Z,100420.83
2019-05-20T16:04:10.041Z,100421.47
2019-05-20T16:07:16.172Z,100427.73
2019-05-20T16:10:21.470Z,100416.47
2019-05-20T16:13:25.793Z,100424.22
2019-05-20T16:16:30.119Z,100426.78
2019-05-20T16:19:34.433Z,100421.56
2019-05-20T16:22:38.763Z,100423.63
2019-05-20T16:25:43.065Z,100429.25
2019-05-20T16:28:47.525Z,100435.88
2019-05-20T16:31:52.040Z,100437.73
2019-05-20T16:34:56.339Z,100436.99
2019-05-20T16:38:00.620Z,100435.91
2019-05-20T16:41:04.940Z,100427.29
2019-05-20T16:44:09.220Z,100434.57
2019-05-20T16:47:13.622Z,100433.64
2019-05-20T16:50:18.882Z,100423.36
2019-05-20T16:53:23.447Z,100428.10
2019-05-20T16:56:28.010Z,100429.78
2019-05-20T16:59:32.360Z,100431.46
2019-05-20T17:02:36.663Z,100434.57
2019-05-20T17:05:40.960Z,100442.62
2019-05-20T17:08:45.275Z,100437.48
2019-05-20T17:11:49.575Z,100442.75
2019-05-20T17:14:53.919Z,100440.48
2019-05-20T17:17:58.248Z,100443.07
2019-05-20T17:21:02.727Z,100443.91
2019-05-20T17:24:07.020Z,100441.29
2019-05-20T17:27:11.299Z,100440.64
2019-05-20T17:30:18.075Z,100437.39
2019-05-20T17:33:22.490Z,100433.33
2019-05-20T17:36:26.772Z,100441.94
2019-05-20T17:39:31.149Z,100430.90
2019-05-20T17:42:35.416Z,100442.95
2019-05-20T17:45:41.355Z,100446.41
2019-05-20T17:48:45.658Z,100446.23
2019-05-20T17:51:49.955Z,100451.39
2019-05-20T17:54:54.260Z,100442.84
2019-05-20T17:57:58.667Z,100436.55
2019-05-20T18:01:14.920Z,100443.80
2019-05-20T18:04:11.836Z,100447.20
2019-05-20T18:07:18.576Z,100454.36
2019-05-20T18:10:25.205Z,100454.18
2019-05-20T18:13:29.539Z,100457.05
2019-05-20T18:16:33.866Z,100452.71
2019-05-20T18:19:38.167Z,100452.78
2019-05-20T18:22:44.164Z,100449.94
2019-05-20T18:25:48.458Z,100455.33
2019-05-20T18:28:52.778Z,100461.83
2019-05-20T18:31:57.263Z,100460.06
2019-05-20T18:35:03.488Z,100465.05
2019-05-20T18:38:07.790Z,100466.50
2019-05-20T18:41:12.073Z,100472.58
2019-05-20T18:44:16.398Z,100472.88
2019-05-20T18:47:20.728Z,100475.56
2019-05-20T18:50:25.019Z,100481.30
2019-05-20T18:53:29.316Z,100480.39
2019-05-20T18:56:34.906Z,100490.00
2019-05-20T18:59:39.261Z,100504.63
2019-05-20T19:02:45.328Z,100498.23
2019-05-20T19:05:49.642Z,100496.38
2019-05-20T19:08:54.161Z,100494.70
2019-05-20T19:11:58.485Z,100490.92
2019-05-20T19:15:03.030Z,100492.91
2019-05-20T19:18:08.391Z,100492.77
2019-05-20T19:21:12.705Z,100485.30
2019-05-20T19:24:17.649Z,100497.10
2019-05-20T19:27:22.418Z,100510.91
2019-05-20T19:30:26.817Z,100513.91
2019-05-20T19:33:31.213Z,100515.97
2019-05-20T19:36:35.698Z,100506.66
2019-05-20T19:39:39.989Z,100514.77
2019-05-20T19:42:46.079Z,100514.89
2019-05-20T19:45:52.215Z,100503.86
2019-05-20T19:48:59.749Z,100502.44
2019-05-20T19:52:04.127Z,100491.26
2019-05-20T19:55:08.672Z,100487.15
2019-05-20T19:58:14.842Z,100478.66
2019-05-20T20:01:19.143Z,100478.59
2019-05-20T20:04:23.463Z,100476.38
2019-05-20T20:07:28.851Z,100479.94
2019-05-20T20:10:33.221Z,100485.25
2019-05-20T20:13:38.601Z,100496.58
2019-05-20T20:16:42.891Z,100505.45
2019-05-20T20:19:47.399Z,100510.07
2019-05-20T20:22:51.703Z,100506.41
2019-05-20T20:25:56.103Z,100510.36
2019-05-20T20:29:00.395Z,100512.27
2019-05-20T20:32:04.809Z,100504.87
2019-05-20T20:35:09.526Z,100494.01
2019-05-20T20:38:13.814Z,100486.11
2019-05-20T20:41:18.211Z,100499.56
2019-05-20T20:44:22.477Z,100501.19
2019-05-20T20:47:40.860Z,100499.55
2019-05-20T20:50:32.844Z,100505.08
2019-05-20T20:53:37.234Z,100508.81
2019-05-20T20:56:41.612Z,100498.53
2019-05-20T20:59:50.244Z,100494.59
2019-05-20T21:02:54.012Z,100488.04
2019-05-20T21:05:59.478Z,100490.53
2019-05-20T21:09:05.521Z,100486.97
2019-05-20T21:12:09.829Z,100485.45
2019-05-20T21:15:14.446Z,100483.23
2019-05-20T21:18:19.595Z,100485.82
2019-05-20T21:21:23.925Z,100489.45
2019-05-20T21:24:28.243Z,100484.41
2019-05-20T21:27:32.578Z,100483.38
2019-05-20T21:30:36.843Z,100487.87
2019-05-20T21:33:41.206Z,100482.09
2019-05-20T21:36:48.102Z,100478.16
2019-05-20T21:39:55.819Z,100474.42
2019-05-20T21:43:02.374Z,100475.50
2019-05-20T21:46:09.228Z,100470.49
2019-05-20T21:49:15.914Z,100468.58
2019-05-20T21:52:20.796Z,100473.52
2019-05-20T21:55:25.419Z,100482.92
2019-05-20T21:58:30.034Z,100489.64
2019-05-20T22:01:34.578Z,100491.16
2019-05-20T22:04:39.116Z,100490.08
2019-05-20T22:07:43.690Z,100498.80
2019-05-20T22:10:48.198Z,100496.78
2019-05-20T22:13:52.710Z,100498.59
2019-05-20T22:16:58.903Z,100505.42
2019-05-20T22:20:06.593Z,100509.14
2019-05-20T22:23:25.053Z,100510.74
2019-05-20T22:26:31.211Z,100516.22
2019-05-20T22:29:36.237Z,100509.41
2019-05-20T22:32:41.908Z,100508.54
2019-05-20T22:35:51.222Z,100511.11
2019-05-20T22:38:58.207Z,100511.36
2019-05-20T22:42:05.232Z,100508.98
2019-05-20T22:45:12.350Z,100507.43
2019-05-20T22:48:17.341Z,100504.34
2019-05-20T22:51:21.613Z,100510.12
2019-05-20T22:54:26.248Z,100508.02
2019-05-20T22:57:30.717Z,100510.70
2019-05-20T23:00:35.122Z,100508.20
2019-05-20T23:03:39.445Z,100503.40
2019-05-20T23:06:45.178Z,100497.81
2019-05-20T23:09:49.695Z,100495.28
2019-05-20T23:12:53.984Z,100504.09
2019-05-20T23:15:58.256Z,100499.61
2019-05-20T23:19:02.547Z,100489.98
2019-05-20T23:22:06.833Z,100495.14
2019-05-20T23:25:12.583Z,100494.17
2019-05-20T23:28:18.046Z,100497.33
2019-05-20T23:31:22.360Z,100496.56
2019-05-20T23:34:27.491Z,100491.78
2019-05-20T23:37:33.641Z,100495.43
2019-05-20T23:40:37.911Z,100496.14
2019-05-20T23:43:42.187Z,100501.28
2019-05-20T23:46:46.475Z,100496.14
2019-05-20T23:49:51.144Z,100499.48
2019-05-20T23:52:57.780Z,100494.43
2019-05-20T23:56:02.067Z,100489.71
2019-05-20T23:59:06.331Z,100491.89
